Clara City, Minnesota
Current Conditions -  °F | °C
As of 9:34 PM on Friday 28 Nov 2014 (Local Time) from KMVE Reporting Station
Overcast Overcast  
Wind Chill:   Ceiling: 900
Heat Index: 19°   Visibility: 10mi
Dew Point: 18°   Wind: 10mph
Humidity: 93%   Direction: 160°SSE
Pressure: 29.68"   Gusts: NA
Location:  44.95°N, 95.37°W
Report Text: KMVE 290334Z AUTO 16009KT 10SM OVC009 M07/M08 A2968 RMK AO2
Loading
Personal Weather Stations






























Interactive Weather Map New forecast layout! Learn more

10-Day Weather Forecast

Advertisements
Track Severe Weather on mobile